sensor_id;sensor_type;location;lat;lon;timestamp;temperature;humidity
80134;SHT30;69443;51.442;10.564;2023-07-31T19:01:04;22.17;56.21
80134;SHT30;69443;51.442;10.564;2023-07-31T19:03:30;22.14;56.29
80134;SHT30;69443;51.442;10.564;2023-07-31T19:06:03;22.11;56.32
80134;SHT30;69443;51.442;10.564;2023-07-31T19:08:30;22.07;56.35
80134;SHT30;69443;51.442;10.564;2023-07-31T19:10:55;22.04;56.37
80134;SHT30;69443;51.442;10.564;2023-07-31T19:13:20;22.03;56.36
80134;SHT30;69443;51.442;10.564;2023-07-31T19:15:46;21.97;56.37
80134;SHT30;69443;51.442;10.564;2023-07-31T19:18:14;21.97;56.39
80134;SHT30;69443;51.442;10.564;2023-07-31T19:20:40;21.94;56.48
80134;SHT30;69443;51.442;10.564;2023-07-31T19:23:05;21.92;56.45
80134;SHT30;69443;51.442;10.564;2023-07-31T19:25:31;21.92;56.46
80134;SHT30;69443;51.442;10.564;2023-07-31T19:27:56;21.87;56.44
80134;SHT30;69443;51.442;10.564;2023-07-31T19:30:22;21.86;56.48
80134;SHT30;69443;51.442;10.564;2023-07-31T19:32:47;21.89;56.52
80134;SHT30;69443;51.442;10.564;2023-07-31T19:35:14;21.85;56.55
80134;SHT30;69443;51.442;10.564;2023-07-31T19:37:39;21.80;56.51
80134;SHT30;69443;51.442;10.564;2023-07-31T19:40:05;21.80;56.54
80134;SHT30;69443;51.442;10.564;2023-07-31T19:42:31;21.77;56.53
80134;SHT30;69443;51.442;10.564;2023-07-31T19:44:57;21.77;56.64
80134;SHT30;69443;51.442;10.564;2023-07-31T19:47:23;21.77;56.61
80134;SHT30;69443;51.442;10.564;2023-07-31T19:49:49;21.75;56.66
80134;SHT30;69443;51.442;10.564;2023-07-31T19:52:14;21.70;56.71
80134;SHT30;69443;51.442;10.564;2023-07-31T19:54:39;21.70;56.70
80134;SHT30;69443;51.442;10.564;2023-07-31T19:57:05;21.69;56.71
80134;SHT30;69443;51.442;10.564;2023-07-31T19:59:30;21.65;56.69
80134;SHT30;69443;51.442;10.564;2023-07-31T20:01:56;21.63;56.72
80134;SHT30;69443;51.442;10.564;2023-07-31T20:04:22;21.60;56.75
80134;SHT30;69443;51.442;10.564;2023-07-31T20:06:47;21.60;56.74
80134;SHT30;69443;51.442;10.564;2023-07-31T20:09:12;21.58;56.71
80134;SHT30;69443;51.442;10.564;2023-07-31T20:11:38;21.59;56.81
80134;SHT30;69443;51.442;10.564;2023-07-31T20:14:06;21.53;56.84
80134;SHT30;69443;51.442;10.564;2023-07-31T20:16:32;21.55;56.81
80134;SHT30;69443;51.442;10.564;2023-07-31T20:19:00;21.53;56.92
80134;SHT30;69443;51.442;10.564;2023-07-31T20:21:26;21.51;56.94
80134;SHT30;69443;51.442;10.564;2023-07-31T20:23:51;21.48;57.00
80134;SHT30;69443;51.442;10.564;2023-07-31T20:26:17;21.48;57.07
80134;SHT30;69443;51.442;10.564;2023-07-31T20:28:42;21.43;57.15
80134;SHT30;69443;51.442;10.564;2023-07-31T20:31:07;21.42;57.35
80134;SHT30;69443;51.442;10.564;2023-07-31T20:33:33;21.39;57.46
80134;SHT30;69443;51.442;10.564;2023-07-31T20:35:58;21.37;57.56
80134;SHT30;69443;51.442;10.564;2023-07-31T20:38:23;21.34;57.69
80134;SHT30;69443;51.442;10.564;2023-07-31T20:40:50;21.31;57.82
80134;SHT30;69443;51.442;10.564;2023-07-31T20:43:16;21.27;58.03
80134;SHT30;69443;51.442;10.564;2023-07-31T20:45:43;21.24;58.19
80134;SHT30;69443;51.442;10.564;2023-07-31T20:48:09;21.21;58.40
80134;SHT30;69443;51.442;10.564;2023-07-31T20:50:36;21.17;58.50
80134;SHT30;69443;51.442;10.564;2023-07-31T20:53:01;21.14;58.65
80134;SHT30;69443;51.442;10.564;2023-07-31T20:55:28;21.10;58.81
80134;SHT30;69443;51.442;10.564;2023-07-31T20:57:53;21.07;58.89
80134;SHT30;69443;51.442;10.564;2023-07-31T21:00:19;21.01;59.07
80134;SHT30;69443;51.442;10.564;2023-07-31T21:02:45;21.00;59.24
80134;SHT30;69443;51.442;10.564;2023-07-31T21:05:10;20.94;59.41
80134;SHT30;69443;51.442;10.564;2023-07-31T21:07:37;20.90;59.51
80134;SHT30;69443;51.442;10.564;2023-07-31T21:10:03;20.86;59.67
80134;SHT30;69443;51.442;10.564;2023-07-31T21:12:29;20.81;59.75
80134;SHT30;69443;51.442;10.564;2023-07-31T21:14:55;20.76;59.83
80134;SHT30;69443;51.442;10.564;2023-07-31T21:17:20;20.73;59.94
80134;SHT30;69443;51.442;10.564;2023-07-31T21:19:45;20.69;60.14
80134;SHT30;69443;51.442;10.564;2023-07-31T21:22:11;20.65;60.26
80134;SHT30;69443;51.442;10.564;2023-07-31T21:24:38;20.61;60.31
80134;SHT30;69443;51.442;10.564;2023-07-31T21:27:05;20.57;60.42
80134;SHT30;69443;51.442;10.564;2023-07-31T21:29:30;20.52;60.62
80134;SHT30;69443;51.442;10.564;2023-07-31T21:31:55;20.48;60.63
80134;SHT30;69443;51.442;10.564;2023-07-31T21:34:21;20.46;60.86
80134;SHT30;69443;51.442;10.564;2023-07-31T21:36:46;20.39;60.93
80134;SHT30;69443;51.442;10.564;2023-07-31T21:39:12;20.36;61.05
80134;SHT30;69443;51.442;10.564;2023-07-31T21:41:37;20.32;61.15
80134;SHT30;69443;51.442;10.564;2023-07-31T21:44:03;20.31;61.11
80134;SHT30;69443;51.442;10.564;2023-07-31T21:46:28;20.27;61.19
80134;SHT30;69443;51.442;10.564;2023-07-31T21:48:54;20.22;61.23
80134;SHT30;69443;51.442;10.564;2023-07-31T21:51:19;20.18;61.26
80134;SHT30;69443;51.442;10.564;2023-07-31T21:53:45;20.17;61.45
80134;SHT30;69443;51.442;10.564;2023-07-31T21:56:10;20.13;61.63
80134;SHT30;69443;51.442;10.564;2023-07-31T21:58:35;20.11;61.64
80134;SHT30;69443;51.442;10.564;2023-07-31T22:01:01;20.07;61.67
80134;SHT30;69443;51.442;10.564;2023-07-31T22:03:26;20.03;61.83
80134;SHT30;69443;51.442;10.564;2023-07-31T22:05:52;20.01;61.88
80134;SHT30;69443;51.442;10.564;2023-07-31T22:08:17;19.98;61.98
80134;SHT30;69443;51.442;10.564;2023-07-31T22:10:42;19.94;62.02
80134;SHT30;69443;51.442;10.564;2023-07-31T22:13:08;19.93;62.18
80134;SHT30;69443;51.442;10.564;2023-07-31T22:15:33;19.89;62.40
80134;SHT30;69443;51.442;10.564;2023-07-31T22:17:58;19.86;62.38
80134;SHT30;69443;51.442;10.564;2023-07-31T22:20:24;19.80;62.36
80134;SHT30;69443;51.442;10.564;2023-07-31T22:22:49;19.76;62.57
80134;SHT30;69443;51.442;10.564;2023-07-31T22:25:14;19.75;62.52
80134;SHT30;69443;51.442;10.564;2023-07-31T22:27:40;19.73;62.69
80134;SHT30;69443;51.442;10.564;2023-07-31T22:30:06;19.69;62.69
80134;SHT30;69443;51.442;10.564;2023-07-31T22:32:31;19.66;62.81
80134;SHT30;69443;51.442;10.564;2023-07-31T22:34:56;19.66;62.83
80134;SHT30;69443;51.442;10.564;2023-07-31T22:37:22;19.62;62.90
80134;SHT30;69443;51.442;10.564;2023-07-31T22:39:47;19.62;62.97
80134;SHT30;69443;51.442;10.564;2023-07-31T22:42:13;19.59;62.94
80134;SHT30;69443;51.442;10.564;2023-07-31T22:44:38;19.56;62.98
80134;SHT30;69443;51.442;10.564;2023-07-31T22:47:04;19.56;63.05
80134;SHT30;69443;51.442;10.564;2023-07-31T22:49:29;19.52;63.05
80134;SHT30;69443;51.442;10.564;2023-07-31T23:05:44;19.41;63.85
80134;SHT30;69443;51.442;10.564;2023-07-31T23:09:02;19.39;64.20
80134;SHT30;69443;51.442;10.564;2023-07-31T23:33:06;19.22;63.91
80134;SHT30;69443;51.442;10.564;2023-07-31T23:35:31;19.21;64.10
80134;SHT30;69443;51.442;10.564;2023-07-31T23:37:57;19.21;64.10
